Latest Weather Observations for Amberley

IDQ60801

Issued at 8:32 pm EST Tuesday 23 May 2017 (issued every 30 minutes, with the page automatically refreshed every 10 minutes)

About weather observations | Map of weather stations | Latest weather observations for QLD | Other Formats
Station Details ID: 040004 Name: AMBERLEY AMO Lat: -27.63 Lon: 152.71 Height: 24.2 m
Data from the previous 72 hours. | See also: Recent months at Amberley
Date/Time
EST
Temp
°C
App
Temp
°C
Dew
Point
°C
Rel
Hum
%
Delta-T
°C
Wind Press
QNH
hPa
Press
MSL
hPa
Rain since
9am
mm
Dir  Spd
km/h
Gust
km/h
Spd
kts
Gust
kts
23/08:00pm 18.3 18.5 15.8 85 1.5 E 9 9 5 5 1020.0 1020.0 0.0
23/07:30pm 18.7 19.0 15.1 79 2.1 ESE 7 9 4 5 1019.9 1019.9 0.0
23/07:00pm 20.4 20.3 15.9 75 2.7 ENE 11 13 6 7 1019.5 1019.5 0.0
23/06:30pm 21.0 20.5 16.0 73 3.0 ENE 13 15 7 8 1019.1 1019.1 0.0
23/06:00pm 21.7 21.2 15.9 69 3.5 ENE 13 17 7 9 1018.9 1018.9 0.0
23/05:30pm 20.9 22.7 15.5 71 3.2 CALM 0 0 0 0 1018.4 1018.4 0.0
23/05:00pm 22.5 22.8 14.5 60 4.7 NE 6 9 3 5 1018.2 1018.2 0.0
23/04:30pm 24.4 24.6 14.6 54 5.8 NE 7 7 4 4 1018.1 1018.1 0.0
23/04:00pm 24.8 24.5 14.5 52 6.1 NNE 9 11 5 6 1017.9 1017.9 0.0
23/03:30pm 25.0 25.2 14.6 52 6.2 NNE 7 13 4 7 1017.7 1017.7 0.0
23/03:00pm 25.5 25.4 15.0 52 6.3 NW 9 13 5 7 1017.7 1017.7 0.0
23/02:30pm 25.3 25.9 14.3 50 6.5 NNE 4 9 2 5 1017.9 1017.9 0.0
23/02:00pm 25.1 24.7 14.1 50 6.5 N 9 13 5 7 1018.2 1018.2 0.0
23/01:30pm 24.3 24.1 13.7 51 6.2 N 7 15 4 8 1018.5 1018.5 0.0
23/01:00pm 24.9 25.2 15.1 54 5.9 NW 7 11 4 6 1019.1 1019.1 0.0
23/12:30pm 24.2 25.0 14.8 55 5.6 W 4 11 2 6 1019.5 1019.5 0.0
23/12:00pm 23.7 24.3 15.7 61 4.8 NW 7 11 4 6 1020.1 1020.1 0.0
23/11:30am 23.4 24.0 15.8 62 4.6 NW 7 26 4 14 1020.7 1020.7 0.0
23/11:00am 22.8 23.5 15.6 64 4.3 W 6 11 3 6 1021.0 1021.0 0.0
23/10:30am 21.6 22.2 15.9 70 3.4 N 7 9 4 5 1021.5 1021.5 0.0
23/10:00am 20.9 22.4 16.6 76 2.6 WNW 4 9 2 5 1022.2 1022.2 0.0
23/09:30am 19.0 20.1 16.5 85 1.5 NW 6 9 3 5 1022.4 1022.4 0.0
23/09:00am 17.9 18.8 16.2 90 1.0 N 6 9 3 5 1022.4 1022.4 0.2
23/08:30am 16.2 16.8 15.7 97 0.3 NW 7 9 4 5 1022.5 1022.5 0.2
23/08:00am 14.6 15.9 14.2 97 0.2 CALM 0 0 0 0 1022.5 1022.5 0.2
23/07:30am 13.9 15.0 13.5 97 0.2 CALM 0 0 0 0 1022.1 1022.1 0.2
23/07:00am 13.5 14.5 13.1 97 0.2 CALM 0 0 0 0 1021.7 1021.7 0.2
23/06:30am 12.9 13.7 12.5 97 0.2 CALM 0 0 0 0 1021.4 1021.4 0.2
23/06:00am 12.0 12.5 11.6 97 0.2 CALM 0 0 0 0 1021.2 1021.2 0.2
23/05:30am 12.3 12.8 11.7 96 0.3 CALM 0 0 0 0 1020.7 1020.7 0.2
23/05:00am 12.1 12.6 11.7 97 0.2 CALM 0 0 0 0 1020.6 1020.6 0.2
23/04:30am 12.9 13.7 12.7 99 0.1 CALM 0 0 0 0 1020.5 1020.5 0.2
23/04:00am 12.6 13.4 12.4 99 0.1 CALM 0 0 0 0 1020.5 1020.5 0.2
23/03:30am 13.0 13.8 12.6 97 0.2 CALM 0 0 0 0 1020.6 1020.6 0.2
23/03:00am 13.3 - 12.9 97 0.2 - - - - - 1020.4 1020.4 0.2
23/02:56am 13.2 14.2 13.2 100 0.0 CALM 0 0 0 0 1020.4 1020.4 0.2
23/02:37am 13.2 14.1 12.8 97 0.2 CALM 0 0 0 0 1020.5 1020.5 0.2
23/02:30am 13.6 - 13.2 97 0.2 - - - - - 1020.4 1020.4 0.2
23/02:06am 13.7 13.6 13.3 97 0.2 SSW 6 7 3 4 1020.6 1020.6 0.2
23/02:00am 14.1 14.1 13.7 97 0.2 SSW 6 7 3 4 1020.7 1020.7 0.2
23/01:30am 13.8 14.9 13.6 99 0.1 CALM 0 0 0 0 1020.8 1020.8 0.2
23/01:14am 13.9 13.8 13.4 97 0.3 SSW 6 9 3 5 1020.8 1020.8 0.2
23/01:00am 13.9 14.2 13.5 97 0.2 SSW 4 7 2 4 1020.9 1020.9 0.2
23/12:30am 13.9 15.0 13.4 97 0.3 CALM 0 0 0 0 1021.0 1021.0 0.2
23/12:12am 14.3 15.5 13.9 97 0.2 CALM 0 0 0 0 1021.1 1021.1 0.2
23/12:00am 14.7 16.0 14.2 97 0.3 CALM 0 0 0 0 1021.2 1021.2 0.2
 
Date/Time
EST
Temp
°C
App
Temp
°C
Dew
Point
°C
Rel
Hum
%
Delta-T
°C
Wind Press
QNH
hPa
Press
MSL
hPa
Rain since
9am
mm
Dir  Spd
km/h
Gust
km/h
Spd
kts
Gust
kts
22/11:30pm 14.8 14.8 14.3 97 0.3 SW 7 11 4 6 1021.6 1021.6 0.2
22/11:00pm 16.0 17.1 14.6 91 0.8 SSW 2 7 1 4 1021.8 1021.8 0.2
22/10:30pm 15.7 15.8 14.5 93 0.7 SSW 7 9 4 5 1021.8 1021.8 0.2
22/10:00pm 16.5 16.1 15.3 93 0.7 SSW 11 11 6 6 1021.8 1021.8 0.2
22/09:30pm 16.5 16.9 15.3 93 0.7 S 7 11 4 6 1021.7 1021.7 0.2
22/09:00pm 17.1 19.0 15.7 91 0.8 CALM 0 0 0 0 1021.6 1021.6 0.2
22/08:30pm 18.1 20.2 16.2 89 1.1 CALM 0 0 0 0 1021.4 1021.4 0.2
22/08:00pm 18.4 20.8 16.9 91 0.9 CALM 0 0 0 0 1021.2 1021.2 0.2
22/07:30pm 19.2 21.5 16.7 85 1.5 CALM 0 6 0 3 1020.9 1020.9 0.2
22/07:00pm 20.3 22.2 16.8 80 2.1 NE 2 6 1 3 1020.5 1020.5 0.2
22/06:30pm 20.2 20.5 16.9 81 2.0 E 11 13 6 7 1020.1 1020.1 0.2
22/06:00pm 21.4 21.6 16.8 75 2.8 NE 11 15 6 8 1019.8 1019.8 0.2
22/05:30pm 22.0 21.1 16.9 73 3.1 E 17 22 9 12 1019.7 1019.7 0.2
22/05:00pm 22.8 22.6 16.6 68 3.8 ENE 13 17 7 9 1019.3 1019.3 0.2
22/04:30pm 23.6 22.8 16.2 63 4.5 E 15 17 8 9 1019.2 1019.2 0.2
22/04:00pm 24.9 25.0 15.6 56 5.6 NE 9 11 5 6 1018.8 1018.8 0.2
22/03:30pm 25.1 25.5 15.3 54 5.9 ESE 7 11 4 6 1018.7 1018.7 0.2
22/03:00pm 25.1 25.7 15.7 56 5.7 ENE 7 11 4 6 1018.8 1018.8 0.2
22/02:30pm 25.3 25.9 15.9 56 5.7 N 7 11 4 6 1019.0 1019.0 0.2
22/02:00pm 25.2 24.8 15.2 54 6.0 NE 11 15 6 8 1019.2 1019.2 0.2
22/01:30pm 23.7 24.4 16.1 62 4.6 ENE 7 13 4 7 1019.4 1019.4 0.2
22/01:00pm 24.3 25.0 16.1 60 5.0 NNE 7 11 4 6 1019.7 1019.7 0.2
22/12:30pm 23.7 24.4 16.1 62 4.6 SE 7 13 4 7 1020.1 1020.1 0.2
22/12:00pm 22.8 23.8 16.4 67 3.9 NNE 6 9 3 5 1020.4 1020.4 0.2
22/11:30am 22.3 24.0 17.1 72 3.2 NNE 4 9 2 5 1021.0 1021.0 0.2
22/11:00am 21.3 23.3 17.0 76 2.6 WSW 2 7 1 4 1021.5 1021.5 0.0
22/10:30am 20.0 21.8 17.4 85 1.6 WNW 4 11 2 6 1022.0 1022.0 0.0
22/10:00am 18.5 20.9 17.0 91 0.9 CALM 0 9 0 5 1022.4 1022.4 0.0
22/09:30am 17.9 18.7 17.2 96 0.4 WSW 9 11 5 6 1022.4 1022.4 0.0
22/09:00am 17.5 18.6 17.0 97 0.3 W 7 9 4 5 1022.5 1022.5 0.0
22/08:30am 17.0 18.6 16.8 99 0.1 NW 4 7 2 4 1022.2 1022.2 0.0
22/08:00am 17.0 18.0 16.8 99 0.1 NW 7 9 4 5 1021.9 1021.9 0.0
22/07:30am 16.5 17.4 16.2 98 0.2 SSW 6 7 3 4 1021.8 1021.8 0.0
22/07:00am 16.3 18.3 16.0 98 0.2 CALM 0 0 0 0 1021.5 1021.5 0.0
22/06:30am 15.9 17.8 15.7 99 0.1 CALM 0 0 0 0 1021.1 1021.1 0.0
22/06:00am 15.9 17.7 15.6 98 0.2 CALM 0 0 0 0 1020.8 1020.8 0.0
22/05:30am 16.0 17.9 15.8 99 0.1 CALM 0 0 0 0 1020.5 1020.5 0.0
22/05:00am 15.9 17.8 15.7 99 0.1 CALM 0 0 0 0 1020.3 1020.3 0.0
22/04:30am 15.8 16.5 15.6 99 0.1 NW 6 9 3 5 1020.0 1020.0 0.0
22/04:00am 15.7 17.5 15.4 98 0.2 CALM 0 0 0 0 1019.9 1019.9 0.0
22/03:30am 15.6 17.0 15.3 98 0.2 WSW 2 6 1 3 1019.6 1019.6 0.0
22/03:00am 15.1 15.0 14.9 99 0.1 NW 9 9 5 5 1019.7 1019.7 0.0
22/02:30am 14.7 15.0 14.5 99 0.1 NNW 6 7 3 4 1019.8 1019.8 0.0
22/02:00am 14.7 16.1 14.5 99 0.1 CALM 0 0 0 0 1019.7 1019.7 0.0
22/01:30am 14.3 15.5 13.9 97 0.2 CALM 0 0 0 0 1019.9 1019.9 0.0
22/01:00am 14.6 15.6 14.2 97 0.2 WSW 2 9 1 5 1019.9 1019.9 0.0
22/12:30am 13.9 15.1 13.7 99 0.1 CALM 0 0 0 0 1020.1 1020.1 0.0
22/12:12am 14.3 15.5 13.9 97 0.2 CALM 0 0 0 0 1020.2 1020.2 0.0
22/12:00am 14.3 15.5 13.9 97 0.2 CALM 0 0 0 0 1020.2 1020.2 0.0
 
Date/Time
EST
Temp
°C
App
Temp
°C
Dew
Point
°C
Rel
Hum
%
Delta-T
°C
Wind Press
QNH
hPa
Press
MSL
hPa
Rain since
9am
mm
Dir  Spd
km/h
Gust
km/h
Spd
kts
Gust
kts
21/11:45pm 14.7 16.1 14.3 97 0.2 CALM 0 0 0 0 1020.3 1020.3 0.0
21/11:30pm 14.6 15.8 13.9 96 0.4 CALM 0 0 0 0 1020.4 1020.4 0.0
21/11:15pm 14.3 14.7 13.8 97 0.3 WSW 4 7 2 4 1020.5 1020.5 0.0
21/11:00pm 14.3 15.5 13.8 97 0.3 CALM 0 4 0 2 1020.3 1020.3 0.0
21/10:30pm 15.0 16.5 14.6 97 0.2 CALM 0 0 0 0 1020.3 1020.3 0.0
21/10:00pm 15.3 16.9 15.0 98 0.2 CALM 0 0 0 0 1020.3 1020.3 0.0
21/09:30pm 15.6 17.3 15.3 98 0.2 CALM 0 0 0 0 1020.2 1020.2 0.0
21/09:25pm 15.5 17.2 15.2 98 0.2 CALM 0 0 0 0 1020.3 1020.3 0.0
21/09:00pm 15.3 16.4 14.6 96 0.4 S 2 6 1 3 1020.2 1020.2 0.0
21/08:30pm 17.5 18.4 16.0 91 0.9 S 6 9 3 5 1020.0 1020.0 0.0
21/08:00pm 18.0 20.1 16.3 90 1.0 CALM 0 0 0 0 1020.1 1020.1 0.0
21/07:30pm 18.3 18.8 16.6 90 1.0 ENE 9 11 5 6 1019.7 1019.7 0.0
21/07:00pm 18.0 18.8 16.3 90 1.0 ENE 7 9 4 5 1019.3 1019.3 0.0
21/06:30pm 18.3 19.9 16.8 91 0.9 SE 4 7 2 4 1019.1 1019.1 0.0
21/06:00pm 18.8 21.2 17.1 90 1.0 CALM 0 0 0 0 1018.5 1018.5 0.0
21/05:30pm 20.0 22.2 16.5 80 2.1 CALM 0 0 0 0 1018.1 1018.1 0.0
21/05:00pm 21.9 24.2 16.8 73 3.1 CALM 0 0 0 0 1017.7 1017.7 0.0
21/04:30pm 23.2 24.1 16.5 66 4.1 NE 7 11 4 6 1017.5 1017.5 0.0
21/04:00pm 23.8 24.7 16.6 64 4.4 NNE 7 11 4 6 1017.2 1017.2 0.0
21/03:30pm 24.2 25.0 16.3 61 4.8 NNE 7 13 4 7 1017.2 1017.2 0.0
21/03:00pm 24.0 25.2 16.8 64 4.4 N 6 9 3 5 1017.3 1017.3 0.0
21/02:30pm 23.9 25.0 16.7 64 4.4 NNE 6 11 3 6 1017.3 1017.3 0.0
21/02:00pm 23.3 24.4 17.0 67 3.9 N 7 11 4 6 1017.3 1017.3 0.0
21/01:30pm 23.6 24.8 16.9 66 4.1 N 6 11 3 6 1017.5 1017.5 0.0
21/01:15pm 23.3 24.3 16.8 67 4.0 N 7 15 4 8 1017.6 1017.6 0.0
21/01:00pm 22.4 23.3 16.7 70 3.5 NW 7 13 4 7 1017.8 1017.8 0.0
21/12:44pm 21.9 22.6 17.0 73 3.0 N 9 13 5 7 1018.0 1018.0 0.0
21/12:41pm 21.9 23.0 17.0 73 3.0 NNW 7 13 4 7 1018.0 1018.0 0.0
21/12:30pm 21.2 22.8 16.9 76 2.6 W 4 11 2 6 1018.3 1018.3 0.0
21/12:00pm 21.1 22.4 17.0 77 2.5 WNW 6 11 3 6 1018.7 1018.7 0.0
21/11:30am 20.1 21.2 17.0 82 1.9 NNW 7 11 4 6 1019.3 1019.3 0.0
21/11:00am 19.9 21.5 16.9 83 1.8 WNW 4 7 2 4 1019.7 1019.7 0.0
21/10:30am 19.4 20.6 16.9 85 1.5 WNW 6 9 3 5 1019.9 1019.9 0.0
21/10:00am 18.7 19.5 17.2 91 0.9 W 9 11 5 6 1020.1 1020.1 0.0
21/09:30am 18.3 19.5 17.3 94 0.6 WSW 7 9 4 5 1020.1 1020.1 0.0
21/09:00am 17.9 20.0 17.2 96 0.4 SW 2 7 1 4 1019.8 1019.8 0.2
21/08:30am 17.3 19.6 16.8 97 0.3 CALM 0 0 0 0 1019.7 1019.7 0.2
21/08:00am 16.8 18.6 16.5 98 0.2 SW 2 6 1 3 1019.4 1019.4 0.2
21/07:30am 16.5 17.2 16.2 98 0.2 SW 7 9 4 5 1019.1 1019.1 0.2
21/07:00am 16.6 17.3 16.1 97 0.3 SW 7 7 4 4 1019.0 1019.0 0.2
21/06:30am 16.7 18.8 16.2 97 0.3 CALM 0 0 0 0 1018.7 1018.7 0.2
21/06:00am 16.5 18.6 16.2 98 0.2 CALM 0 0 0 0 1018.4 1018.4 0.2
21/05:30am 16.3 18.2 15.8 97 0.3 CALM 0 0 0 0 1018.1 1018.1 0.2
21/05:00am 16.4 18.4 15.9 97 0.3 CALM 0 0 0 0 1017.9 1017.9 0.2
21/04:30am 16.1 17.9 15.6 97 0.3 CALM 0 0 0 0 1017.6 1017.6 0.2
21/04:00am 15.9 17.7 15.4 97 0.3 CALM 0 0 0 0 1017.4 1017.4 0.2
21/03:30am 15.6 17.3 15.3 98 0.2 CALM 0 0 0 0 1017.5 1017.5 0.2
21/03:00am 15.3 16.9 15.0 98 0.2 CALM 0 0 0 0 1017.3 1017.3 0.2
21/02:30am 15.0 16.5 14.6 97 0.2 CALM 0 0 0 0 1017.4 1017.4 0.2
21/02:00am 14.7 16.1 14.3 97 0.2 CALM 0 0 0 0 1017.4 1017.4 0.2
21/01:30am 14.1 15.3 13.7 97 0.2 CALM 0 0 0 0 1017.6 1017.6 0.2
21/01:00am 13.8 14.9 13.4 97 0.2 CALM 0 0 0 0 1017.7 1017.7 0.2
21/12:30am 13.8 14.9 13.4 97 0.2 CALM 0 0 0 0 1017.8 1017.8 0.2
21/12:02am 14.0 15.2 13.8 99 0.1 CALM 0 0 0 0 1017.9 1017.9 0.2
21/12:00am 14.2 15.4 13.8 97 0.2 CALM 0 0 0 0 1017.9 1017.9 0.2
 
Date/Time
EST
Temp
°C
App
Temp
°C
Dew
Point
°C
Rel
Hum
%
Delta-T
°C
Wind Press
QNH
hPa
Press
MSL
hPa
Rain since
9am
mm
Dir  Spd
km/h
Gust
km/h
Spd
kts
Gust
kts
20/11:34pm 13.7 14.7 13.3 97 0.2 CALM 0 0 0 0 1017.9 1017.9 0.2
20/11:30pm 14.1 15.3 13.9 99 0.1 CALM 0 0 0 0 1017.9 1017.9 0.2
20/11:24pm 14.8 16.3 14.6 99 0.1 CALM 0 0 0 0 1017.9 1017.9 0.2
20/11:19pm 14.9 16.4 14.7 99 0.1 CALM 0 0 0 0 1018.0 1018.0 0.2
20/11:00pm 14.6 15.5 14.1 97 0.3 NW 2 7 1 4 1018.1 1018.1 0.2
20/10:44pm 14.3 15.5 13.9 97 0.2 CALM 0 0 0 0 1018.2 1018.2 0.2
20/10:38pm 14.3 15.2 14.1 99 0.1 NNW 2 7 1 4 1018.2 1018.2 0.2
20/10:30pm 14.5 14.6 14.0 97 0.3 NW 6 7 3 4 1018.2 1018.2 0.2
20/10:00pm 15.1 16.7 14.9 99 0.1 CALM 0 0 0 0 1018.2 1018.2 0.2
20/09:30pm 15.7 17.5 15.5 99 0.1 CALM 0 0 0 0 1018.1 1018.1 0.2
20/09:00pm 15.1 16.6 14.7 97 0.2 CALM 0 0 0 0 1018.0 1018.0 0.2
20/08:38pm 16.0 17.8 15.5 97 0.3 CALM 0 0 0 0 1017.8 1017.8 0.2

Other Formats:

Comma delimited format used in spreadsheet applications
http://www.bom.gov.au/fwo/IDQ60801/IDQ60801.94568.axf

JavaScript Object Notation format (JSON) in row-major order
http://www.bom.gov.au/fwo/IDQ60801/IDQ60801.94568.json